createdAt,value
2023-08-26T00:01:22.153Z,15.30
2023-08-26T00:06:25.153Z,10.43
2023-08-26T00:11:29.472Z,15.30
2023-08-26T00:16:32.430Z,10.87
2023-08-26T00:21:35.343Z,13.47
2023-08-26T00:26:39.584Z,9.00
2023-08-26T00:31:42.574Z,10.10
2023-08-26T00:36:45.543Z,10.63
2023-08-26T00:41:50.009Z,15.63
2023-08-26T00:46:53.001Z,8.40
2023-08-26T00:51:57.333Z,14.97
2023-08-26T00:57:01.789Z,9.50
2023-08-26T01:02:04.958Z,11.10
2023-08-26T01:07:07.938Z,16.10
2023-08-26T01:12:24.451Z,15.13
2023-08-26T01:17:27.768Z,12.23
2023-08-26T01:22:36.557Z,10.90
2023-08-26T01:27:40.825Z,9.93
2023-08-26T01:32:48.619Z,17.80
2023-08-26T01:37:55.795Z,16.80
2023-08-26T01:43:00.998Z,10.90
2023-08-26T01:48:04.120Z,12.50
2023-08-26T01:53:09.444Z,12.20
2023-08-26T01:58:13.700Z,17.93
2023-08-26T02:03:16.720Z,15.37
2023-08-26T02:08:19.641Z,12.10
2023-08-26T02:13:25.125Z,12.73
2023-08-26T02:18:28.024Z,20.30
2023-08-26T02:23:30.880Z,13.70
2023-08-26T02:28:35.283Z,15.53
2023-08-26T02:33:38.226Z,13.37
2023-08-26T02:38:41.203Z,15.37
2023-08-26T02:43:45.474Z,13.97
2023-08-26T02:48:48.827Z,11.50
2023-08-26T02:53:51.743Z,11.10
2023-08-26T02:58:56.041Z,12.40
2023-08-26T03:03:59.091Z,8.90
2023-08-26T03:09:01.981Z,6.10
2023-08-26T03:14:06.260Z,3.53
2023-08-26T03:19:09.217Z,2.57
2023-08-26T03:24:13.363Z,2.97
2023-08-26T03:29:17.614Z,3.10
2023-08-26T03:34:20.534Z,3.80
2023-08-26T03:39:23.533Z,2.70
2023-08-26T03:44:27.818Z,2.80
2023-08-26T03:49:30.698Z,2.70
2023-08-26T03:54:33.626Z,2.67
2023-08-26T03:59:37.887Z,2.43
2023-08-26T04:04:40.864Z,2.10
2023-08-26T04:09:44.240Z,2.57
2023-08-26T04:14:48.506Z,3.10
2023-08-26T04:19:51.424Z,2.67
2023-08-26T04:24:54.348Z,2.67
2023-08-26T04:29:58.594Z,4.87
2023-08-26T04:35:01.470Z,3.00
2023-08-26T04:40:09.015Z,3.17
2023-08-26T04:45:15.723Z,2.90
2023-08-26T04:50:18.809Z,2.80
2023-08-26T04:55:21.859Z,2.87
2023-08-26T05:00:26.520Z,2.23
2023-08-26T05:05:29.425Z,3.23
2023-08-26T05:10:32.335Z,2.83
2023-08-26T05:15:36.605Z,2.40
2023-08-26T05:20:39.683Z,2.73
2023-08-26T05:25:46.039Z,2.63
2023-08-26T05:30:52.552Z,3.13
2023-08-26T05:35:55.525Z,3.10
2023-08-26T05:40:58.800Z,2.90
2023-08-26T05:46:03.097Z,3.10
2023-08-26T05:51:06.060Z,3.50
2023-08-26T05:56:08.925Z,3.50
2023-08-26T06:01:13.173Z,2.70
2023-08-26T06:06:16.118Z,3.60
2023-08-26T06:11:19.078Z,4.33
2023-08-26T06:16:23.539Z,3.30
2023-08-26T06:21:26.572Z,2.90
2023-08-26T06:26:29.457Z,2.87
2023-08-26T06:31:33.785Z,2.70
2023-08-26T06:36:36.817Z,3.00
2023-08-26T06:41:39.864Z,3.57
2023-08-26T06:46:44.175Z,3.00
2023-08-26T06:51:47.088Z,2.70
2023-08-26T06:56:50.005Z,3.07
2023-08-26T07:01:55.056Z,2.63
2023-08-26T07:06:57.935Z,2.73
2023-08-26T07:12:02.687Z,2.70
2023-08-26T07:17:10.350Z,2.30
2023-08-26T07:22:13.314Z,2.73
2023-08-26T07:27:17.652Z,3.20
2023-08-26T07:32:21.934Z,2.50
2023-08-26T07:37:24.796Z,2.87
2023-08-26T07:42:27.808Z,3.20
2023-08-26T07:52:38.998Z,2.30
2023-08-26T07:57:41.927Z,2.50
2023-08-26T08:02:46.237Z,2.70
2023-08-26T08:07:49.306Z,3.40
2023-08-26T08:12:52.309Z,2.07
2023-08-26T08:17:57.004Z,2.00
2023-08-26T08:23:00.107Z,2.03
2023-08-26T08:28:03.375Z,2.33
2023-08-26T08:33:07.932Z,2.83
2023-08-26T08:38:12.951Z,2.13
2023-08-26T08:43:18.114Z,2.00
2023-08-26T08:48:23.378Z,2.30
2023-08-26T08:53:32.131Z,1.80
2023-08-26T08:58:36.408Z,2.80
2023-08-26T09:03:41.591Z,2.70
2023-08-26T09:08:46.411Z,1.90
2023-08-26T09:13:49.306Z,1.97
2023-08-26T09:18:58.938Z,1.83
2023-08-26T09:24:04.546Z,2.20
2023-08-26T09:29:13.846Z,2.37
2023-08-26T09:34:29.065Z,2.00
2023-08-26T09:39:32.012Z,1.70
2023-08-26T09:44:34.962Z,1.87
2023-08-26T09:49:39.245Z,2.00
2023-08-26T09:54:45.127Z,2.27
2023-08-26T09:59:48.734Z,2.20
2023-08-26T10:04:57.699Z,2.80
2023-08-26T10:10:10.091Z,1.80
2023-08-26T10:15:16.258Z,1.87
2023-08-26T10:20:21.443Z,2.10
2023-08-26T10:25:25.028Z,2.30
2023-08-26T10:30:28.192Z,2.37
2023-08-26T10:35:32.547Z,2.00
2023-08-26T10:40:38.615Z,1.97
2023-08-26T10:45:48.796Z,2.60
2023-08-26T10:51:01.911Z,2.90
2023-08-26T10:56:14.892Z,2.20
2023-08-26T11:01:18.896Z,2.43
2023-08-26T11:06:24.447Z,2.33
2023-08-26T11:11:27.825Z,1.90
2023-08-26T11:16:31.110Z,1.80
2023-08-26T11:21:38.605Z,1.70
2023-08-26T11:26:48.302Z,2.13
2023-08-26T11:31:51.375Z,1.50
2023-08-26T11:36:56.312Z,2.07
2023-08-26T11:41:59.466Z,1.63
2023-08-26T11:47:02.439Z,2.00
2023-08-26T11:52:07.944Z,2.00
2023-08-26T11:57:10.976Z,1.83
2023-08-26T12:02:23.424Z,1.70
2023-08-26T12:07:28.127Z,1.60
2023-08-26T12:12:31.126Z,1.60
2023-08-26T12:17:34.483Z,1.47
2023-08-26T12:22:44.938Z,1.47
2023-08-26T12:27:48.985Z,1.80
2023-08-26T12:32:52.055Z,1.50
2023-08-26T12:37:56.539Z,2.23
2023-08-26T12:42:59.737Z,1.63
2023-08-26T12:48:04.054Z,1.73
2023-08-26T12:53:08.334Z,3.07
2023-08-26T12:58:11.291Z,1.90
2023-08-26T13:03:14.437Z,1.93
2023-08-26T15:01:12.361Z,1.80
2023-08-26T15:07:41.056Z,1.50
2023-08-26T15:12:45.193Z,1.60
2023-08-26T15:17:49.590Z,2.07
2023-08-26T15:22:52.834Z,1.57
2023-08-26T15:27:56.521Z,5.17
2023-08-26T15:33:02.106Z,1.43
2023-08-26T15:43:22.100Z,1.77
2023-08-26T15:48:26.742Z,2.57
2023-08-26T15:53:29.867Z,1.70
2023-08-26T15:58:32.797Z,2.00
2023-08-26T16:03:37.555Z,2.30
2023-08-26T16:08:40.639Z,3.20
2023-08-26T16:13:43.606Z,4.93
2023-08-26T16:18:47.943Z,2.50
2023-08-26T16:23:51.484Z,1.70
2023-08-26T16:28:54.409Z,1.90
2023-08-26T16:33:58.788Z,1.80
2023-08-26T16:39:01.706Z,1.73
2023-08-26T16:44:05.007Z,2.37
2023-08-26T16:49:09.294Z,2.13
2023-08-26T16:54:12.224Z,1.90
2023-08-26T16:59:15.156Z,1.63
2023-08-26T17:04:19.951Z,2.47
2023-08-26T17:09:27.616Z,3.60
2023-08-26T17:14:30.827Z,2.40
2023-08-26T17:19:35.187Z,3.60
2023-08-26T17:24:38.837Z,2.90
2023-08-26T17:29:42.169Z,1.60
2023-08-26T17:34:46.584Z,1.87
2023-08-26T17:39:49.680Z,2.63
2023-08-26T17:44:52.745Z,2.80
2023-08-26T17:49:57.666Z,2.43
2023-08-26T17:55:01.567Z,1.83
2023-08-26T18:00:05.505Z,1.80
2023-08-26T18:05:10.136Z,2.03
2023-08-26T18:10:13.235Z,1.70
2023-08-26T18:15:16.214Z,1.70
2023-08-26T18:20:20.687Z,1.53
2023-08-26T18:25:23.647Z,1.57
2023-08-26T18:30:26.583Z,1.90
2023-08-26T18:35:30.964Z,1.90
2023-08-26T18:40:34.958Z,1.70
2023-08-26T18:45:37.938Z,2.17
2023-08-26T18:50:42.232Z,2.00
2023-08-26T18:55:50.529Z,2.27
2023-08-26T19:00:55.253Z,2.40
2023-08-26T19:05:59.661Z,2.70
2023-08-26T19:11:02.621Z,2.13
2023-08-26T19:16:05.788Z,3.50
2023-08-26T19:21:10.124Z,3.23
2023-08-26T19:26:19.645Z,3.87
2023-08-26T19:31:22.670Z,2.50
2023-08-26T19:36:27.229Z,2.00
2023-08-26T19:41:30.120Z,1.87
2023-08-26T19:46:33.068Z,2.00
2023-08-26T19:51:37.584Z,2.43
2023-08-26T19:56:41.085Z,2.40
2023-08-26T20:01:44.423Z,2.23
2023-08-26T20:06:48.765Z,2.30
2023-08-26T20:11:51.646Z,2.30
2023-08-26T20:16:54.718Z,2.27
2023-08-26T20:22:00.711Z,1.93
2023-08-26T20:27:05.332Z,1.70
2023-08-26T20:32:08.584Z,1.80
2023-08-26T20:37:13.380Z,2.70
2023-08-26T20:42:16.396Z,2.40
2023-08-26T20:47:19.445Z,1.80
2023-08-26T20:52:24.836Z,2.20
2023-08-26T20:57:27.740Z,2.20
2023-08-26T21:02:30.633Z,2.50
2023-08-26T21:07:34.894Z,3.10
2023-08-26T21:12:37.830Z,2.50
2023-08-26T21:17:40.746Z,3.17
2023-08-26T21:22:45.069Z,7.97
2023-08-26T21:27:47.965Z,3.70
2023-08-26T21:32:50.874Z,3.00
2023-08-26T21:37:55.104Z,3.60
2023-08-26T21:42:59.180Z,4.13
2023-08-26T21:48:02.519Z,3.17
2023-08-26T21:53:08.697Z,3.00
2023-08-26T21:58:12.179Z,3.00
2023-08-26T22:03:15.300Z,6.07
2023-08-26T22:08:19.881Z,2.73
2023-08-26T22:13:22.875Z,2.77
2023-08-26T22:18:25.746Z,3.20
2023-08-26T22:23:30.675Z,3.20
2023-08-26T22:28:33.581Z,3.00
2023-08-26T22:33:36.579Z,3.13
2023-08-26T22:38:40.906Z,3.80
2023-08-26T22:43:44.346Z,3.57
2023-08-26T22:48:47.233Z,3.03
2023-08-26T22:53:51.562Z,3.07
2023-08-26T22:58:54.564Z,3.43
2023-08-26T23:03:57.411Z,4.50
2023-08-26T23:09:01.806Z,2.60
2023-08-26T23:14:04.736Z,3.30
2023-08-26T23:19:07.744Z,2.97
2023-08-26T23:24:12.133Z,2.63
2023-08-26T23:29:17.982Z,2.53
2023-08-26T23:34:20.975Z,2.90
2023-08-26T23:39:25.254Z,2.40
2023-08-26T23:44:28.188Z,3.70
2023-08-26T23:49:31.168Z,2.20
2023-08-26T23:54:35.469Z,2.27
2023-08-26T23:59:38.354Z,2.20
